sensor_id;sensor_type;location;lat;lon;timestamp;P1;durP1;ratioP1;P2;durP2;ratioP2
8663;SDS011;4369;47.842;13.096;2022-12-11T00:00:07;37.20;;;22.73;;
8663;SDS011;4369;47.842;13.096;2022-12-11T00:02:36;39.47;;;23.83;;
8663;SDS011;4369;47.842;13.096;2022-12-11T00:05:03;39.07;;;22.97;;
8663;SDS011;4369;47.842;13.096;2022-12-11T00:07:31;39.57;;;22.80;;
8663;SDS011;4369;47.842;13.096;2022-12-11T00:09:58;39.00;;;23.63;;
8663;SDS011;4369;47.842;13.096;2022-12-11T00:12:26;39.83;;;22.40;;
8663;SDS011;4369;47.842;13.096;2022-12-11T00:14:56;44.13;;;25.07;;
8663;SDS011;4369;47.842;13.096;2022-12-11T00:17:23;40.17;;;22.90;;
8663;SDS011;4369;47.842;13.096;2022-12-11T00:19:50;36.60;;;21.67;;
8663;SDS011;4369;47.842;13.096;2022-12-11T00:22:17;38.30;;;22.37;;
8663;SDS011;4369;47.842;13.096;2022-12-11T00:24:44;38.83;;;23.17;;
8663;SDS011;4369;47.842;13.096;2022-12-11T00:27:11;37.97;;;23.07;;
8663;SDS011;4369;47.842;13.096;2022-12-11T00:29:39;43.27;;;25.57;;
8663;SDS011;4369;47.842;13.096;2022-12-11T00:32:07;43.03;;;25.40;;
8663;SDS011;4369;47.842;13.096;2022-12-11T00:34:34;39.50;;;23.93;;
8663;SDS011;4369;47.842;13.096;2022-12-11T00:37:01;41.73;;;24.77;;
8663;SDS011;4369;47.842;13.096;2022-12-11T00:39:28;43.23;;;25.67;;
8663;SDS011;4369;47.842;13.096;2022-12-11T00:41:55;43.90;;;25.47;;
8663;SDS011;4369;47.842;13.096;2022-12-11T00:44:22;44.03;;;25.10;;
8663;SDS011;4369;47.842;13.096;2022-12-11T00:46:49;45.37;;;26.10;;
8663;SDS011;4369;47.842;13.096;2022-12-11T00:49:18;46.17;;;26.07;;
8663;SDS011;4369;47.842;13.096;2022-12-11T00:51:45;43.93;;;25.63;;
8663;SDS011;4369;47.842;13.096;2022-12-11T00:54:12;42.97;;;24.93;;
8663;SDS011;4369;47.842;13.096;2022-12-11T00:56:39;49.03;;;27.30;;
8663;SDS011;4369;47.842;13.096;2022-12-11T00:59:06;40.63;;;23.53;;
8663;SDS011;4369;47.842;13.096;2022-12-11T01:01:34;44.00;;;25.73;;
8663;SDS011;4369;47.842;13.096;2022-12-11T01:04:01;46.00;;;27.17;;
8663;SDS011;4369;47.842;13.096;2022-12-11T01:06:29;44.73;;;26.20;;
8663;SDS011;4369;47.842;13.096;2022-12-11T01:08:56;43.30;;;25.77;;
8663;SDS011;4369;47.842;13.096;2022-12-11T01:11:40;43.37;;;26.17;;
8663;SDS011;4369;47.842;13.096;2022-12-11T01:14:08;42.77;;;26.27;;
8663;SDS011;4369;47.842;13.096;2022-12-11T01:16:36;42.30;;;25.43;;
8663;SDS011;4369;47.842;13.096;2022-12-11T01:19:03;42.13;;;24.60;;
8663;SDS011;4369;47.842;13.096;2022-12-11T01:21:32;45.37;;;26.60;;
8663;SDS011;4369;47.842;13.096;2022-12-11T01:23:59;45.87;;;26.37;;
8663;SDS011;4369;47.842;13.096;2022-12-11T01:26:26;44.03;;;24.97;;
8663;SDS011;4369;47.842;13.096;2022-12-11T01:28:54;47.93;;;27.27;;
8663;SDS011;4369;47.842;13.096;2022-12-11T01:31:21;47.90;;;26.70;;
8663;SDS011;4369;47.842;13.096;2022-12-11T01:33:48;43.50;;;26.80;;
8663;SDS011;4369;47.842;13.096;2022-12-11T01:36:17;47.17;;;27.87;;
8663;SDS011;4369;47.842;13.096;2022-12-11T01:38:51;44.67;;;25.80;;
8663;SDS011;4369;47.842;13.096;2022-12-11T01:41:26;42.77;;;25.50;;
8663;SDS011;4369;47.842;13.096;2022-12-11T01:44:01;49.23;;;27.57;;
8663;SDS011;4369;47.842;13.096;2022-12-11T01:46:30;46.97;;;26.60;;
8663;SDS011;4369;47.842;13.096;2022-12-11T01:48:58;48.10;;;27.80;;
8663;SDS011;4369;47.842;13.096;2022-12-11T01:51:28;41.50;;;25.17;;
8663;SDS011;4369;47.842;13.096;2022-12-11T01:53:59;44.13;;;25.80;;
8663;SDS011;4369;47.842;13.096;2022-12-11T01:56:31;47.00;;;27.03;;
8663;SDS011;4369;47.842;13.096;2022-12-11T01:59:02;49.37;;;27.10;;
8663;SDS011;4369;47.842;13.096;2022-12-11T02:01:32;50.00;;;27.13;;
8663;SDS011;4369;47.842;13.096;2022-12-11T02:04:03;46.77;;;26.07;;
8663;SDS011;4369;47.842;13.096;2022-12-11T02:06:34;52.50;;;28.43;;
8663;SDS011;4369;47.842;13.096;2022-12-11T02:09:06;46.43;;;25.73;;
8663;SDS011;4369;47.842;13.096;2022-12-11T02:11:39;48.40;;;27.80;;
8663;SDS011;4369;47.842;13.096;2022-12-11T02:14:17;42.27;;;24.23;;
8663;SDS011;4369;47.842;13.096;2022-12-11T02:16:52;46.47;;;26.57;;
8663;SDS011;4369;47.842;13.096;2022-12-11T02:19:30;47.07;;;25.60;;
8663;SDS011;4369;47.842;13.096;2022-12-11T02:22:13;43.87;;;25.43;;
8663;SDS011;4369;47.842;13.096;2022-12-11T02:27:17;47.43;;;24.90;;
8663;SDS011;4369;47.842;13.096;2022-12-11T02:29:54;47.47;;;26.00;;
8663;SDS011;4369;47.842;13.096;2022-12-11T02:32:28;41.20;;;23.97;;
8663;SDS011;4369;47.842;13.096;2022-12-11T02:35:01;45.60;;;25.37;;
8663;SDS011;4369;47.842;13.096;2022-12-11T02:37:34;42.53;;;23.93;;
8663;SDS011;4369;47.842;13.096;2022-12-11T02:40:03;45.27;;;25.73;;
8663;SDS011;4369;47.842;13.096;2022-12-11T02:42:35;45.73;;;24.40;;
8663;SDS011;4369;47.842;13.096;2022-12-11T02:45:06;47.37;;;25.40;;
8663;SDS011;4369;47.842;13.096;2022-12-11T02:47:35;44.07;;;24.77;;
8663;SDS011;4369;47.842;13.096;2022-12-11T02:50:06;43.97;;;24.20;;
8663;SDS011;4369;47.842;13.096;2022-12-11T02:52:36;44.50;;;25.83;;
8663;SDS011;4369;47.842;13.096;2022-12-11T02:55:07;45.30;;;26.30;;
8663;SDS011;4369;47.842;13.096;2022-12-11T02:57:38;47.17;;;25.47;;
8663;SDS011;4369;47.842;13.096;2022-12-11T03:00:11;47.47;;;26.07;;
8663;SDS011;4369;47.842;13.096;2022-12-11T03:02:40;48.73;;;26.53;;
8663;SDS011;4369;47.842;13.096;2022-12-11T03:05:08;46.27;;;26.57;;
8663;SDS011;4369;47.842;13.096;2022-12-11T03:07:37;46.37;;;25.37;;
8663;SDS011;4369;47.842;13.096;2022-12-11T03:10:07;45.87;;;25.57;;
8663;SDS011;4369;47.842;13.096;2022-12-11T03:12:36;49.80;;;26.67;;
8663;SDS011;4369;47.842;13.096;2022-12-11T03:15:06;49.43;;;28.10;;
8663;SDS011;4369;47.842;13.096;2022-12-11T03:17:40;49.70;;;27.70;;
8663;SDS011;4369;47.842;13.096;2022-12-11T03:20:16;44.67;;;24.60;;
8663;SDS011;4369;47.842;13.096;2022-12-11T03:22:52;46.47;;;25.80;;
8663;SDS011;4369;47.842;13.096;2022-12-11T03:25:28;46.77;;;25.40;;
8663;SDS011;4369;47.842;13.096;2022-12-11T03:28:01;47.53;;;26.73;;
8663;SDS011;4369;47.842;13.096;2022-12-11T03:30:33;48.47;;;26.37;;
8663;SDS011;4369;47.842;13.096;2022-12-11T03:33:04;48.57;;;26.17;;
8663;SDS011;4369;47.842;13.096;2022-12-11T03:35:36;51.63;;;27.67;;
8663;SDS011;4369;47.842;13.096;2022-12-11T03:38:06;46.60;;;27.10;;
8663;SDS011;4369;47.842;13.096;2022-12-11T03:40:36;48.03;;;26.20;;
8663;SDS011;4369;47.842;13.096;2022-12-11T03:43:06;52.57;;;27.33;;
8663;SDS011;4369;47.842;13.096;2022-12-11T03:45:36;47.03;;;26.63;;
8663;SDS011;4369;47.842;13.096;2022-12-11T03:48:06;48.33;;;25.90;;
8663;SDS011;4369;47.842;13.096;2022-12-11T03:50:35;50.23;;;27.07;;
8663;SDS011;4369;47.842;13.096;2022-12-11T03:53:03;50.97;;;27.63;;
8663;SDS011;4369;47.842;13.096;2022-12-11T03:55:31;53.63;;;28.63;;
8663;SDS011;4369;47.842;13.096;2022-12-11T03:58:00;48.83;;;27.00;;
8663;SDS011;4369;47.842;13.096;2022-12-11T04:00:27;46.63;;;25.37;;
8663;SDS011;4369;47.842;13.096;2022-12-11T04:02:54;47.53;;;27.57;;
8663;SDS011;4369;47.842;13.096;2022-12-11T04:05:42;46.23;;;27.17;;
8663;SDS011;4369;47.842;13.096;2022-12-11T04:08:10;44.60;;;26.20;;
8663;SDS011;4369;47.842;13.096;2022-12-11T04:10:38;48.73;;;27.07;;
8663;SDS011;4369;47.842;13.096;2022-12-11T04:13:06;49.30;;;27.00;;
8663;SDS011;4369;47.842;13.096;2022-12-11T04:15:34;47.83;;;25.73;;
8663;SDS011;4369;47.842;13.096;2022-12-11T04:18:00;47.03;;;26.93;;
8663;SDS011;4369;47.842;13.096;2022-12-11T04:20:46;48.13;;;25.93;;
8663;SDS011;4369;47.842;13.096;2022-12-11T04:23:31;47.63;;;25.87;;
8663;SDS011;4369;47.842;13.096;2022-12-11T04:26:16;45.10;;;26.23;;
8663;SDS011;4369;47.842;13.096;2022-12-11T04:28:45;45.27;;;25.93;;
8663;SDS011;4369;47.842;13.096;2022-12-11T04:31:14;49.63;;;25.93;;
8663;SDS011;4369;47.842;13.096;2022-12-11T04:33:42;45.43;;;25.50;;
8663;SDS011;4369;47.842;13.096;2022-12-11T04:36:11;48.10;;;26.27;;
8663;SDS011;4369;47.842;13.096;2022-12-11T04:38:39;47.10;;;26.63;;
8663;SDS011;4369;47.842;13.096;2022-12-11T04:41:07;45.53;;;25.77;;
8663;SDS011;4369;47.842;13.096;2022-12-11T04:43:36;41.33;;;24.77;;
8663;SDS011;4369;47.842;13.096;2022-12-11T04:46:04;45.10;;;24.83;;
8663;SDS011;4369;47.842;13.096;2022-12-11T04:48:33;43.37;;;24.50;;
8663;SDS011;4369;47.842;13.096;2022-12-11T04:51:01;42.20;;;24.20;;
8663;SDS011;4369;47.842;13.096;2022-12-11T04:53:30;42.00;;;23.27;;
8663;SDS011;4369;47.842;13.096;2022-12-11T04:55:57;43.37;;;24.33;;
8663;SDS011;4369;47.842;13.096;2022-12-11T04:58:24;38.87;;;22.80;;
8663;SDS011;4369;47.842;13.096;2022-12-11T05:00:52;35.17;;;22.13;;
8663;SDS011;4369;47.842;13.096;2022-12-11T05:03:19;39.87;;;21.90;;
8663;SDS011;4369;47.842;13.096;2022-12-11T05:05:47;33.83;;;19.03;;
8663;SDS011;4369;47.842;13.096;2022-12-11T05:10:55;42.03;;;23.03;;
8663;SDS011;4369;47.842;13.096;2022-12-11T05:13:23;38.40;;;22.33;;
8663;SDS011;4369;47.842;13.096;2022-12-11T05:15:52;43.87;;;23.07;;
8663;SDS011;4369;47.842;13.096;2022-12-11T05:18:22;37.30;;;20.40;;
8663;SDS011;4369;47.842;13.096;2022-12-11T05:20:53;36.43;;;21.23;;
8663;SDS011;4369;47.842;13.096;2022-12-11T05:23:21;33.57;;;20.30;;
8663;SDS011;4369;47.842;13.096;2022-12-11T05:25:50;42.23;;;22.93;;
8663;SDS011;4369;47.842;13.096;2022-12-11T05:28:19;38.90;;;21.73;;
8663;SDS011;4369;47.842;13.096;2022-12-11T05:30:46;38.83;;;23.20;;
8663;SDS011;4369;47.842;13.096;2022-12-11T05:33:13;47.63;;;23.10;;
8663;SDS011;4369;47.842;13.096;2022-12-11T05:35:45;42.23;;;23.17;;
8663;SDS011;4369;47.842;13.096;2022-12-11T05:38:12;40.40;;;23.07;;
8663;SDS011;4369;47.842;13.096;2022-12-11T05:40:40;38.33;;;22.40;;
8663;SDS011;4369;47.842;13.096;2022-12-11T05:43:07;38.90;;;22.63;;
8663;SDS011;4369;47.842;13.096;2022-12-11T05:45:44;41.40;;;22.93;;
8663;SDS011;4369;47.842;13.096;2022-12-11T05:48:12;41.80;;;23.23;;
8663;SDS011;4369;47.842;13.096;2022-12-11T05:50:40;38.90;;;22.80;;
8663;SDS011;4369;47.842;13.096;2022-12-11T05:53:08;39.47;;;22.67;;
8663;SDS011;4369;47.842;13.096;2022-12-11T05:55:42;39.77;;;23.37;;
8663;SDS011;4369;47.842;13.096;2022-12-11T05:58:11;41.50;;;22.70;;
8663;SDS011;4369;47.842;13.096;2022-12-11T06:00:41;37.67;;;22.87;;
8663;SDS011;4369;47.842;13.096;2022-12-11T06:03:10;40.80;;;23.67;;
8663;SDS011;4369;47.842;13.096;2022-12-11T06:05:38;40.13;;;22.53;;
8663;SDS011;4369;47.842;13.096;2022-12-11T06:08:05;39.87;;;23.07;;
8663;SDS011;4369;47.842;13.096;2022-12-11T06:10:35;39.83;;;22.73;;
8663;SDS011;4369;47.842;13.096;2022-12-11T06:13:02;44.70;;;29.30;;
8663;SDS011;4369;47.842;13.096;2022-12-11T06:15:29;41.67;;;25.20;;
8663;SDS011;4369;47.842;13.096;2022-12-11T06:17:58;40.20;;;23.93;;
8663;SDS011;4369;47.842;13.096;2022-12-11T06:20:25;37.13;;;23.27;;
8663;SDS011;4369;47.842;13.096;2022-12-11T06:22:52;43.42;;;29.35;;
8663;SDS011;4369;47.842;13.096;2022-12-11T06:25:19;43.33;;;25.50;;
8663;SDS011;4369;47.842;13.096;2022-12-11T06:27:47;42.10;;;24.87;;
8663;SDS011;4369;47.842;13.096;2022-12-11T06:30:13;40.60;;;24.00;;
8663;SDS011;4369;47.842;13.096;2022-12-11T06:32:41;34.83;;;21.67;;
8663;SDS011;4369;47.842;13.096;2022-12-11T06:35:11;36.93;;;23.00;;
8663;SDS011;4369;47.842;13.096;2022-12-11T06:37:38;41.97;;;23.63;;
8663;SDS011;4369;47.842;13.096;2022-12-11T06:40:06;36.23;;;22.37;;
8663;SDS011;4369;47.842;13.096;2022-12-11T06:42:34;32.33;;;19.33;;
8663;SDS011;4369;47.842;13.096;2022-12-11T06:45:01;28.47;;;17.90;;
8663;SDS011;4369;47.842;13.096;2022-12-11T06:47:29;28.57;;;18.20;;
8663;SDS011;4369;47.842;13.096;2022-12-11T06:49:57;33.83;;;21.13;;
8663;SDS011;4369;47.842;13.096;2022-12-11T06:52:27;36.87;;;20.53;;
8663;SDS011;4369;47.842;13.096;2022-12-11T06:54:54;41.43;;;22.87;;
8663;SDS011;4369;47.842;13.096;2022-12-11T06:57:21;33.30;;;19.57;;
8663;SDS011;4369;47.842;13.096;2022-12-11T06:59:49;32.33;;;18.47;;
8663;SDS011;4369;47.842;13.096;2022-12-11T07:02:17;34.90;;;20.73;;
8663;SDS011;4369;47.842;13.096;2022-12-11T07:04:45;32.20;;;19.70;;
8663;SDS011;4369;47.842;13.096;2022-12-11T07:07:12;38.77;;;21.20;;
8663;SDS011;4369;47.842;13.096;2022-12-11T07:09:40;32.33;;;19.97;;
8663;SDS011;4369;47.842;13.096;2022-12-11T07:12:07;33.33;;;19.77;;
8663;SDS011;4369;47.842;13.096;2022-12-11T07:14:34;32.17;;;18.97;;
8663;SDS011;4369;47.842;13.096;2022-12-11T07:17:05;33.57;;;18.90;;
8663;SDS011;4369;47.842;13.096;2022-12-11T07:19:32;33.20;;;19.43;;
8663;SDS011;4369;47.842;13.096;2022-12-11T07:22:00;34.80;;;21.27;;
8663;SDS011;4369;47.842;13.096;2022-12-11T07:24:28;35.20;;;20.20;;
8663;SDS011;4369;47.842;13.096;2022-12-11T07:26:56;34.53;;;20.00;;
8663;SDS011;4369;47.842;13.096;2022-12-11T07:29:24;40.20;;;20.67;;
8663;SDS011;4369;47.842;13.096;2022-12-11T07:31:51;36.20;;;22.17;;
8663;SDS011;4369;47.842;13.096;2022-12-11T07:34:18;40.30;;;22.17;;
8663;SDS011;4369;47.842;13.096;2022-12-11T07:36:45;33.80;;;20.60;;
8663;SDS011;4369;47.842;13.096;2022-12-11T07:39:12;32.47;;;19.67;;
8663;SDS011;4369;47.842;13.096;2022-12-11T07:41:40;32.43;;;19.63;;
8663;SDS011;4369;47.842;13.096;2022-12-11T07:44:08;36.20;;;19.37;;
8663;SDS011;4369;47.842;13.096;2022-12-11T07:46:35;29.53;;;17.97;;
8663;SDS011;4369;47.842;13.096;2022-12-11T07:49:03;29.17;;;17.43;;
8663;SDS011;4369;47.842;13.096;2022-12-11T07:51:30;30.33;;;17.80;;
8663;SDS011;4369;47.842;13.096;2022-12-11T07:54:00;30.57;;;17.27;;
8663;SDS011;4369;47.842;13.096;2022-12-11T07:56:28;30.77;;;16.53;;
8663;SDS011;4369;47.842;13.096;2022-12-11T07:58:57;35.23;;;17.77;;
8663;SDS011;4369;47.842;13.096;2022-12-11T08:01:26;26.97;;;16.60;;
8663;SDS011;4369;47.842;13.096;2022-12-11T08:03:54;29.87;;;14.80;;
8663;SDS011;4369;47.842;13.096;2022-12-11T08:06:23;33.20;;;17.37;;
8663;SDS011;4369;47.842;13.096;2022-12-11T08:08:52;33.23;;;17.77;;
8663;SDS011;4369;47.842;13.096;2022-12-11T08:11:19;30.80;;;17.93;;
8663;SDS011;4369;47.842;13.096;2022-12-11T08:13:46;35.33;;;17.00;;
8663;SDS011;4369;47.842;13.096;2022-12-11T08:16:13;33.53;;;17.70;;
8663;SDS011;4369;47.842;13.096;2022-12-11T08:18:42;28.20;;;15.83;;
8663;SDS011;4369;47.842;13.096;2022-12-11T08:21:12;26.80;;;16.17;;
8663;SDS011;4369;47.842;13.096;2022-12-11T08:23:39;23.80;;;15.03;;
8663;SDS011;4369;47.842;13.096;2022-12-11T08:26:08;28.00;;;14.87;;
8663;SDS011;4369;47.842;13.096;2022-12-11T08:28:37;25.83;;;15.63;;
8663;SDS011;4369;47.842;13.096;2022-12-11T08:31:04;26.37;;;15.47;;
8663;SDS011;4369;47.842;13.096;2022-12-11T08:33:34;26.00;;;15.43;;
8663;SDS011;4369;47.842;13.096;2022-12-11T08:36:03;34.73;;;17.13;;
8663;SDS011;4369;47.842;13.096;2022-12-11T08:38:31;28.00;;;16.83;;
8663;SDS011;4369;47.842;13.096;2022-12-11T08:40:58;26.50;;;16.93;;
8663;SDS011;4369;47.842;13.096;2022-12-11T08:43:33;31.70;;;16.40;;
8663;SDS011;4369;47.842;13.096;2022-12-11T08:46:00;35.70;;;16.70;;
8663;SDS011;4369;47.842;13.096;2022-12-11T08:48:28;37.93;;;18.90;;
8663;SDS011;4369;47.842;13.096;2022-12-11T08:51:01;30.10;;;17.77;;
8663;SDS011;4369;47.842;13.096;2022-12-11T08:53:38;29.90;;;16.60;;
8663;SDS011;4369;47.842;13.096;2022-12-11T08:56:06;25.60;;;14.83;;
8663;SDS011;4369;47.842;13.096;2022-12-11T08:58:34;32.07;;;17.93;;
8663;SDS011;4369;47.842;13.096;2022-12-11T09:01:04;26.47;;;16.20;;
8663;SDS011;4369;47.842;13.096;2022-12-11T09:03:33;28.17;;;16.97;;
8663;SDS011;4369;47.842;13.096;2022-12-11T09:06:04;26.27;;;15.50;;
8663;SDS011;4369;47.842;13.096;2022-12-11T09:08:33;36.80;;;18.00;;
8663;SDS011;4369;47.842;13.096;2022-12-11T09:11:03;27.27;;;16.10;;
8663;SDS011;4369;47.842;13.096;2022-12-11T09:13:31;38.60;;;18.90;;
8663;SDS011;4369;47.842;13.096;2022-12-11T09:15:59;34.10;;;17.73;;
8663;SDS011;4369;47.842;13.096;2022-12-11T09:18:28;30.13;;;17.23;;
8663;SDS011;4369;47.842;13.096;2022-12-11T09:20:59;44.90;;;21.25;;
8663;SDS011;4369;47.842;13.096;2022-12-11T09:23:29;29.80;;;16.93;;
8663;SDS011;4369;47.842;13.096;2022-12-11T09:25:56;33.57;;;19.07;;
8663;SDS011;4369;47.842;13.096;2022-12-11T09:28:24;28.10;;;17.13;;
8663;SDS011;4369;47.842;13.096;2022-12-11T09:30:52;32.60;;;18.03;;
8663;SDS011;4369;47.842;13.096;2022-12-11T09:33:18;28.77;;;18.07;;
8663;SDS011;4369;47.842;13.096;2022-12-11T09:35:45;27.67;;;17.33;;
8663;SDS011;4369;47.842;13.096;2022-12-11T09:38:22;28.23;;;17.13;;
8663;SDS011;4369;47.842;13.096;2022-12-11T09:40:50;28.80;;;17.73;;
8663;SDS011;4369;47.842;13.096;2022-12-11T09:43:21;27.37;;;16.33;;
8663;SDS011;4369;47.842;13.096;2022-12-11T09:45:59;25.57;;;16.20;;
8663;SDS011;4369;47.842;13.096;2022-12-11T09:48:29;26.23;;;16.20;;
8663;SDS011;4369;47.842;13.096;2022-12-11T09:50:59;34.77;;;18.33;;
8663;SDS011;4369;47.842;13.096;2022-12-11T09:53:33;33.83;;;17.57;;
8663;SDS011;4369;47.842;13.096;2022-12-11T09:56:05;35.75;;;22.35;;
8663;SDS011;4369;47.842;13.096;2022-12-11T09:58:43;27.13;;;17.30;;
8663;SDS011;4369;47.842;13.096;2022-12-11T10:01:25;30.77;;;18.20;;
8663;SDS011;4369;47.842;13.096;2022-12-11T10:06:50;27.17;;;17.13;;
8663;SDS011;4369;47.842;13.096;2022-12-11T10:09:29;29.13;;;16.50;;
8663;SDS011;4369;47.842;13.096;2022-12-11T10:12:10;30.20;;;17.03;;
8663;SDS011;4369;47.842;13.096;2022-12-11T10:15:13;36.97;;;19.20;;
8663;SDS011;4369;47.842;13.096;2022-12-11T10:17:51;29.60;;;17.17;;
8663;SDS011;4369;47.842;13.096;2022-12-11T10:20:23;32.30;;;16.53;;
8663;SDS011;4369;47.842;13.096;2022-12-11T10:22:55;26.83;;;17.40;;
8663;SDS011;4369;47.842;13.096;2022-12-11T10:25:28;29.23;;;17.37;;
8663;SDS011;4369;47.842;13.096;2022-12-11T10:27:59;29.13;;;18.03;;
8663;SDS011;4369;47.842;13.096;2022-12-11T10:30:32;27.43;;;16.67;;
8663;SDS011;4369;47.842;13.096;2022-12-11T10:33:08;26.93;;;17.17;;
8663;SDS011;4369;47.842;13.096;2022-12-11T10:35:46;26.70;;;17.03;;
8663;SDS011;4369;47.842;13.096;2022-12-11T10:38:16;29.10;;;17.73;;
8663;SDS011;4369;47.842;13.096;2022-12-11T10:40:48;28.00;;;16.57;;
8663;SDS011;4369;47.842;13.096;2022-12-11T10:43:18;28.97;;;16.13;;
8663;SDS011;4369;47.842;13.096;2022-12-11T10:45:49;25.17;;;15.93;;
8663;SDS011;4369;47.842;13.096;2022-12-11T10:48:17;27.90;;;15.80;;
8663;SDS011;4369;47.842;13.096;2022-12-11T10:50:44;26.20;;;16.40;;
8663;SDS011;4369;47.842;13.096;2022-12-11T10:53:23;28.07;;;16.67;;
8663;SDS011;4369;47.842;13.096;2022-12-11T10:55:51;28.77;;;15.97;;
8663;SDS011;4369;47.842;13.096;2022-12-11T10:58:21;27.13;;;16.53;;
8663;SDS011;4369;47.842;13.096;2022-12-11T11:00:58;34.37;;;16.60;;
8663;SDS011;4369;47.842;13.096;2022-12-11T11:03:32;25.90;;;16.37;;
8663;SDS011;4369;47.842;13.096;2022-12-11T11:06:04;27.77;;;16.37;;
8663;SDS011;4369;47.842;13.096;2022-12-11T11:08:41;30.93;;;16.53;;
8663;SDS011;4369;47.842;13.096;2022-12-11T11:11:19;24.87;;;16.07;;
8663;SDS011;4369;47.842;13.096;2022-12-11T11:13:50;28.27;;;16.47;;
8663;SDS011;4369;47.842;13.096;2022-12-11T11:16:17;24.77;;;15.83;;
8663;SDS011;4369;47.842;13.096;2022-12-11T11:18:51;26.60;;;14.57;;
8663;SDS011;4369;47.842;13.096;2022-12-11T11:21:20;28.07;;;17.80;;
8663;SDS011;4369;47.842;13.096;2022-12-11T11:23:49;24.97;;;15.77;;
8663;SDS011;4369;47.842;13.096;2022-12-11T11:26:18;33.40;;;16.37;;
8663;SDS011;4369;47.842;13.096;2022-12-11T11:28:47;32.27;;;16.93;;
8663;SDS011;4369;47.842;13.096;2022-12-11T11:31:18;39.97;;;18.47;;
8663;SDS011;4369;47.842;13.096;2022-12-11T11:33:49;29.60;;;17.50;;
8663;SDS011;4369;47.842;13.096;2022-12-11T11:36:22;29.77;;;15.93;;
8663;SDS011;4369;47.842;13.096;2022-12-11T11:38:57;30.50;;;17.10;;
8663;SDS011;4369;47.842;13.096;2022-12-11T11:41:37;30.13;;;16.63;;
8663;SDS011;4369;47.842;13.096;2022-12-11T11:44:20;27.17;;;16.30;;
8663;SDS011;4369;47.842;13.096;2022-12-11T11:46:54;27.23;;;15.57;;
8663;SDS011;4369;47.842;13.096;2022-12-11T11:49:29;28.43;;;15.60;;
8663;SDS011;4369;47.842;13.096;2022-12-11T11:52:10;26.63;;;15.47;;
8663;SDS011;4369;47.842;13.096;2022-12-11T11:54:42;25.27;;;15.50;;
8663;SDS011;4369;47.842;13.096;2022-12-11T11:57:17;26.80;;;15.90;;
8663;SDS011;4369;47.842;13.096;2022-12-11T11:59:53;27.97;;;16.20;;
8663;SDS011;4369;47.842;13.096;2022-12-11T12:02:23;23.37;;;14.97;;
8663;SDS011;4369;47.842;13.096;2022-12-11T12:04:50;26.83;;;16.93;;
8663;SDS011;4369;47.842;13.096;2022-12-11T12:07:23;25.23;;;15.67;;
8663;SDS011;4369;47.842;13.096;2022-12-11T12:10:02;25.07;;;16.43;;
8663;SDS011;4369;47.842;13.096;2022-12-11T12:12:40;25.77;;;14.83;;
8663;SDS011;4369;47.842;13.096;2022-12-11T12:15:17;21.50;;;13.77;;
8663;SDS011;4369;47.842;13.096;2022-12-11T12:17:51;19.37;;;12.03;;
8663;SDS011;4369;47.842;13.096;2022-12-11T12:20:23;21.03;;;14.47;;
8663;SDS011;4369;47.842;13.096;2022-12-11T12:22:59;21.17;;;13.17;;
8663;SDS011;4369;47.842;13.096;2022-12-11T12:25:38;21.63;;;12.87;;
8663;SDS011;4369;47.842;13.096;2022-12-11T12:28:13;19.10;;;11.90;;
8663;SDS011;4369;47.842;13.096;2022-12-11T12:30:50;20.70;;;12.57;;
8663;SDS011;4369;47.842;13.096;2022-12-11T12:33:30;23.53;;;12.87;;
8663;SDS011;4369;47.842;13.096;2022-12-11T12:36:08;23.23;;;13.30;;
8663;SDS011;4369;47.842;13.096;2022-12-11T12:38:44;26.63;;;13.80;;
8663;SDS011;4369;47.842;13.096;2022-12-11T12:41:20;22.00;;;13.07;;
8663;SDS011;4369;47.842;13.096;2022-12-11T12:46:45;22.20;;;12.53;;
8663;SDS011;4369;47.842;13.096;2022-12-11T12:49:20;19.03;;;12.03;;
8663;SDS011;4369;47.842;13.096;2022-12-11T12:51:59;19.63;;;12.47;;
8663;SDS011;4369;47.842;13.096;2022-12-11T12:54:26;20.43;;;13.10;;
8663;SDS011;4369;47.842;13.096;2022-12-11T12:56:55;22.13;;;13.20;;
8663;SDS011;4369;47.842;13.096;2022-12-11T12:59:24;21.77;;;12.13;;
8663;SDS011;4369;47.842;13.096;2022-12-11T13:01:54;19.13;;;11.47;;
8663;SDS011;4369;47.842;13.096;2022-12-11T13:04:34;21.37;;;11.40;;
8663;SDS011;4369;47.842;13.096;2022-12-11T13:07:10;18.93;;;11.63;;
8663;SDS011;4369;47.842;13.096;2022-12-11T13:09:39;16.83;;;10.93;;
8663;SDS011;4369;47.842;13.096;2022-12-11T13:12:11;16.23;;;10.40;;
8663;SDS011;4369;47.842;13.096;2022-12-11T13:14:39;17.47;;;10.23;;
8663;SDS011;4369;47.842;13.096;2022-12-11T13:17:21;14.97;;;10.00;;
8663;SDS011;4369;47.842;13.096;2022-12-11T13:20:05;16.07;;;9.67;;
8663;SDS011;4369;47.842;13.096;2022-12-11T13:22:55;15.07;;;9.63;;
8663;SDS011;4369;47.842;13.096;2022-12-11T13:25:44;16.63;;;10.40;;
8663;SDS011;4369;47.842;13.096;2022-12-11T13:28:29;17.63;;;10.10;;
8663;SDS011;4369;47.842;13.096;2022-12-11T13:30:59;16.67;;;10.17;;
8663;SDS011;4369;47.842;13.096;2022-12-11T13:33:36;18.13;;;11.07;;
8663;SDS011;4369;47.842;13.096;2022-12-11T13:36:17;14.43;;;9.87;;
8663;SDS011;4369;47.842;13.096;2022-12-11T13:38:54;17.53;;;10.60;;
8663;SDS011;4369;47.842;13.096;2022-12-11T13:41:22;18.13;;;10.47;;
8663;SDS011;4369;47.842;13.096;2022-12-11T13:43:51;13.87;;;9.60;;
8663;SDS011;4369;47.842;13.096;2022-12-11T13:46:20;22.30;;;9.93;;
8663;SDS011;4369;47.842;13.096;2022-12-11T13:48:53;14.97;;;9.63;;
8663;SDS011;4369;47.842;13.096;2022-12-11T13:51:25;14.57;;;9.43;;
8663;SDS011;4369;47.842;13.096;2022-12-11T13:54:10;14.60;;;9.93;;
8663;SDS011;4369;47.842;13.096;2022-12-11T13:56:53;15.57;;;9.20;;
8663;SDS011;4369;47.842;13.096;2022-12-11T13:59:23;15.43;;;8.90;;
8663;SDS011;4369;47.842;13.096;2022-12-11T14:02:09;12.10;;;8.47;;
8663;SDS011;4369;47.842;13.096;2022-12-11T14:04:42;17.80;;;9.07;;
8663;SDS011;4369;47.842;13.096;2022-12-11T14:07:10;16.57;;;9.37;;
8663;SDS011;4369;47.842;13.096;2022-12-11T14:09:38;13.80;;;8.83;;
8663;SDS011;4369;47.842;13.096;2022-12-11T14:12:12;12.77;;;9.27;;
8663;SDS011;4369;47.842;13.096;2022-12-11T14:14:43;13.07;;;9.60;;
8663;SDS011;4369;47.842;13.096;2022-12-11T14:17:22;13.53;;;9.53;;
8663;SDS011;4369;47.842;13.096;2022-12-11T14:19:51;12.20;;;9.43;;
8663;SDS011;4369;47.842;13.096;2022-12-11T14:22:20;15.00;;;10.40;;
8663;SDS011;4369;47.842;13.096;2022-12-11T14:24:48;18.43;;;11.17;;
8663;SDS011;4369;47.842;13.096;2022-12-11T14:27:16;14.87;;;10.83;;
8663;SDS011;4369;47.842;13.096;2022-12-11T14:29:44;17.53;;;11.30;;
8663;SDS011;4369;47.842;13.096;2022-12-11T14:32:15;14.37;;;10.80;;
8663;SDS011;4369;47.842;13.096;2022-12-11T14:34:46;18.80;;;11.03;;
8663;SDS011;4369;47.842;13.096;2022-12-11T14:37:16;18.43;;;11.10;;
8663;SDS011;4369;47.842;13.096;2022-12-11T14:39:47;17.13;;;11.43;;
8663;SDS011;4369;47.842;13.096;2022-12-11T14:42:20;15.43;;;10.40;;
8663;SDS011;4369;47.842;13.096;2022-12-11T14:44:51;17.67;;;11.27;;
8663;SDS011;4369;47.842;13.096;2022-12-11T14:47:21;15.77;;;11.03;;
8663;SDS011;4369;47.842;13.096;2022-12-11T14:49:52;15.43;;;10.73;;
8663;SDS011;4369;47.842;13.096;2022-12-11T14:52:26;16.07;;;10.80;;
8663;SDS011;4369;47.842;13.096;2022-12-11T14:54:58;19.30;;;11.33;;
8663;SDS011;4369;47.842;13.096;2022-12-11T14:57:30;18.60;;;11.47;;
8663;SDS011;4369;47.842;13.096;2022-12-11T14:59:59;16.80;;;12.27;;
8663;SDS011;4369;47.842;13.096;2022-12-11T15:02:27;18.17;;;11.70;;
8663;SDS011;4369;47.842;13.096;2022-12-11T15:04:58;16.90;;;11.50;;
8663;SDS011;4369;47.842;13.096;2022-12-11T15:07:32;16.60;;;11.67;;